createdAt,value
2019-03-12T00:01:46.523Z,11.48
2019-03-12T00:04:13.843Z,17.73
2019-03-12T00:06:41.193Z,10.60
2019-03-12T00:09:08.781Z,11.78
2019-03-12T00:11:36.077Z,12.58
2019-03-12T00:14:03.351Z,10.08
2019-03-12T00:16:30.632Z,9.83
2019-03-12T00:18:57.979Z,8.13
2019-03-12T00:21:25.275Z,12.70
2019-03-12T00:23:52.643Z,9.40
2019-03-12T00:26:19.951Z,9.43
2019-03-12T00:28:47.233Z,11.38
2019-03-12T00:31:14.527Z,10.70
2019-03-12T00:33:41.830Z,15.13
2019-03-12T00:36:09.115Z,12.93
2019-03-12T00:38:36.405Z,12.75
2019-03-12T00:41:03.667Z,7.10
2019-03-12T00:43:30.977Z,8.73
2019-03-12T00:45:58.246Z,9.08
2019-03-12T00:48:25.531Z,17.65
2019-03-12T00:50:52.804Z,9.80
2019-03-12T00:53:20.075Z,9.85
2019-03-12T00:55:47.371Z,11.33
2019-03-12T00:58:14.647Z,9.08
2019-03-12T01:00:41.930Z,10.13
2019-03-12T01:03:09.207Z,13.32
2019-03-12T01:05:36.500Z,11.53
2019-03-12T01:08:03.831Z,9.48
2019-03-12T01:10:31.158Z,8.18
2019-03-12T01:12:58.455Z,13.98
2019-03-12T01:15:25.750Z,9.23
2019-03-12T01:17:53.019Z,14.65
2019-03-12T01:20:20.471Z,12.63
2019-03-12T01:22:47.744Z,8.85
2019-03-12T01:25:15.033Z,12.50
2019-03-12T01:27:42.382Z,12.18
2019-03-12T01:30:11.058Z,25.65
2019-03-12T01:32:38.394Z,8.00
2019-03-12T01:35:06.444Z,12.63
2019-03-12T01:37:33.726Z,9.18
2019-03-12T01:40:01.000Z,10.95
2019-03-12T01:42:28.282Z,6.60
2019-03-12T01:44:55.588Z,11.08
2019-03-12T01:47:22.883Z,12.95
2019-03-12T01:49:50.348Z,11.78
2019-03-12T01:52:17.635Z,11.95
2019-03-12T01:54:44.908Z,9.95
2019-03-12T01:57:12.184Z,7.95
2019-03-12T01:59:39.462Z,11.40
2019-03-12T02:02:06.772Z,10.68
2019-03-12T02:04:34.135Z,8.45
2019-03-12T02:07:01.500Z,12.58
2019-03-12T02:09:29.720Z,8.75
2019-03-12T02:11:57.012Z,8.90
2019-03-12T02:14:25.500Z,15.20
2019-03-12T02:16:52.840Z,10.25
2019-03-12T02:19:20.144Z,12.88
2019-03-12T02:21:47.426Z,12.40
2019-03-12T02:24:14.720Z,11.93
2019-03-12T02:26:42.002Z,7.58
2019-03-12T02:29:09.290Z,9.95
2019-03-12T02:31:36.646Z,12.05
2019-03-12T02:34:04.015Z,13.08
2019-03-12T02:36:31.403Z,15.55
2019-03-12T02:38:58.745Z,11.30
2019-03-12T02:41:26.139Z,18.02
2019-03-12T02:43:53.417Z,13.22
2019-03-12T02:46:20.715Z,10.18
2019-03-12T02:48:48.001Z,11.30
2019-03-12T02:51:15.275Z,12.23
2019-03-12T02:53:42.575Z,13.95
2019-03-12T02:56:09.856Z,13.22
2019-03-12T02:58:37.167Z,10.88
2019-03-12T03:01:04.514Z,9.50
2019-03-12T03:03:31.821Z,10.90
2019-03-12T03:06:00.745Z,14.95
2019-03-12T03:08:32.661Z,13.38
2019-03-12T03:10:59.945Z,12.88
2019-03-12T03:13:27.227Z,9.70
2019-03-12T03:15:54.514Z,15.93
2019-03-12T03:18:21.815Z,10.60
2019-03-12T03:20:49.117Z,11.20
2019-03-12T03:23:16.417Z,16.02
2019-03-12T03:25:43.770Z,14.65
2019-03-12T03:28:11.051Z,16.90
2019-03-12T03:30:38.335Z,10.68
2019-03-12T03:33:05.900Z,10.30
2019-03-12T03:35:33.328Z,13.75
2019-03-12T03:38:00.738Z,11.78
2019-03-12T03:40:28.097Z,11.85
2019-03-12T03:42:55.451Z,18.10
2019-03-12T03:45:22.890Z,16.25
2019-03-12T03:47:50.369Z,12.43
2019-03-12T03:50:17.946Z,13.15
2019-03-12T03:52:45.275Z,15.90
2019-03-12T03:55:14.184Z,13.05
2019-03-12T03:57:41.482Z,10.65
2019-03-12T04:00:10.706Z,11.97
2019-03-12T04:02:38.006Z,11.05
2019-03-12T04:05:05.661Z,15.80
2019-03-12T04:07:32.960Z,17.12
2019-03-12T04:10:00.319Z,12.50
2019-03-12T04:12:27.689Z,16.12
2019-03-12T04:14:55.044Z,12.13
2019-03-12T04:17:22.363Z,16.75
2019-03-12T04:19:49.676Z,12.75
2019-03-12T04:22:17.034Z,15.93
2019-03-12T04:24:44.407Z,17.10
2019-03-12T04:27:11.689Z,13.90
2019-03-12T04:29:39.047Z,14.30
2019-03-12T04:32:06.348Z,17.60
2019-03-12T04:34:33.634Z,11.63
2019-03-12T04:37:00.924Z,15.93
2019-03-12T04:39:28.216Z,13.88
2019-03-12T04:41:55.572Z,16.90
2019-03-12T04:44:22.868Z,15.75
2019-03-12T04:46:50.144Z,12.58
2019-03-12T04:49:17.454Z,15.53
2019-03-12T04:51:44.754Z,15.20
2019-03-12T04:54:12.031Z,19.20
2019-03-12T04:56:39.323Z,22.65
2019-03-12T04:59:06.624Z,18.23
2019-03-12T05:01:33.928Z,22.42
2019-03-12T05:06:35.875Z,16.42
2019-03-12T05:09:05.403Z,15.63
2019-03-12T05:11:32.742Z,23.47
2019-03-12T05:14:16.647Z,32.10
2019-03-12T05:16:44.000Z,18.77
2019-03-12T05:19:11.387Z,22.45
2019-03-12T05:21:38.760Z,20.02
2019-03-12T05:24:06.246Z,15.32
2019-03-12T05:26:33.703Z,16.60
2019-03-12T05:29:01.148Z,19.62
2019-03-12T05:31:28.523Z,18.00
2019-03-12T05:33:55.886Z,16.70
2019-03-12T05:36:23.347Z,20.68
2019-03-12T05:38:50.695Z,21.60
2019-03-12T05:41:18.080Z,16.42
2019-03-12T05:43:45.418Z,17.45
2019-03-12T05:46:12.776Z,20.15
2019-03-12T05:48:40.083Z,17.15
2019-03-12T05:51:07.432Z,12.95
2019-03-12T05:53:45.316Z,21.27
2019-03-12T05:56:12.607Z,16.15
2019-03-12T05:58:39.912Z,20.37
2019-03-12T06:01:07.234Z,19.70
2019-03-12T06:03:34.552Z,21.77
2019-03-12T06:06:01.894Z,18.73
2019-03-12T06:08:29.233Z,15.63
2019-03-12T06:10:56.522Z,21.35
2019-03-12T06:13:23.842Z,17.42
2019-03-12T06:15:53.260Z,11.73
2019-03-12T06:18:20.511Z,18.23
2019-03-12T06:20:47.799Z,13.72
2019-03-12T06:23:15.484Z,14.98
2019-03-12T06:25:42.820Z,18.70
2019-03-12T06:28:10.136Z,14.23
2019-03-12T06:30:39.044Z,14.78
2019-03-12T06:33:07.978Z,15.88
2019-03-12T06:35:48.516Z,18.77
2019-03-12T06:38:20.236Z,21.57
2019-03-12T06:43:38.906Z,17.02
2019-03-12T06:46:19.982Z,16.60
2019-03-12T06:48:51.871Z,15.43
2019-03-12T06:51:23.918Z,17.10
2019-03-12T06:54:09.138Z,14.95
2019-03-12T06:56:43.844Z,23.10
2019-03-12T06:59:13.546Z,20.08
2019-03-12T07:01:48.167Z,20.52
2019-03-12T07:04:32.980Z,14.78
2019-03-12T07:07:07.018Z,17.85
2019-03-12T07:09:47.092Z,18.80
2019-03-12T07:12:16.034Z,17.40
2019-03-12T07:14:44.960Z,17.70
2019-03-12T07:17:13.894Z,18.75
2019-03-12T07:19:59.090Z,20.88
2019-03-12T07:22:33.730Z,19.92
2019-03-12T07:25:05.188Z,18.80
2019-03-12T07:27:52.301Z,16.70
2019-03-12T07:30:37.118Z,22.87
2019-03-12T07:33:08.963Z,21.42
2019-03-12T07:35:47.788Z,15.25
2019-03-12T07:38:19.583Z,15.50
2019-03-12T07:40:54.258Z,18.07
2019-03-12T07:43:29.145Z,15.30
2019-03-12T07:46:03.792Z,15.78
2019-03-12T07:48:35.473Z,17.40
2019-03-12T07:51:22.209Z,15.48
2019-03-12T07:54:07.067Z,15.48
2019-03-12T07:56:35.998Z,17.55
2019-03-12T07:59:04.909Z,10.30
2019-03-12T08:01:36.777Z,13.15
2019-03-12T08:04:08.473Z,11.40
2019-03-12T08:06:52.225Z,11.78
2019-03-12T08:09:26.833Z,14.73
2019-03-12T08:11:55.763Z,14.07
2019-03-12T08:14:40.803Z,15.32
2019-03-12T08:17:25.896Z,14.23
2019-03-12T08:19:57.605Z,11.50
2019-03-12T08:22:35.585Z,14.95
2019-03-12T08:25:04.514Z,11.50
2019-03-12T08:27:49.747Z,11.73
2019-03-12T08:30:34.765Z,7.60
2019-03-12T08:33:06.376Z,8.90
2019-03-12T08:35:38.027Z,9.80
2019-03-12T08:38:09.923Z,15.10
2019-03-12T08:40:52.320Z,14.45
2019-03-12T08:43:21.473Z,9.10
2019-03-12T08:45:59.498Z,10.60
2019-03-12T08:48:28.430Z,12.75
2019-03-12T08:51:06.335Z,15.10
2019-03-12T08:53:44.204Z,12.13
2019-03-12T08:56:13.115Z,11.45
2019-03-12T08:58:47.849Z,11.97
2019-03-12T09:01:19.673Z,10.48
2019-03-12T09:04:04.720Z,12.15
2019-03-12T09:06:49.763Z,9.97
2019-03-12T09:09:18.677Z,9.23
2019-03-12T09:11:47.583Z,10.40
2019-03-12T09:14:32.795Z,10.60
2019-03-12T09:17:07.495Z,10.00
2019-03-12T09:19:45.402Z,8.73
2019-03-12T09:22:20.137Z,7.63
2019-03-12T09:25:04.135Z,11.93
2019-03-12T09:27:38.775Z,7.95
2019-03-12T09:30:09.287Z,9.73
2019-03-12T09:32:50.211Z,13.43
2019-03-12T09:35:22.137Z,8.93
2019-03-12T09:37:56.740Z,8.03
2019-03-12T09:40:25.652Z,8.95
2019-03-12T09:43:03.687Z,9.13
2019-03-12T09:45:41.426Z,10.58
2019-03-12T09:48:19.181Z,6.60
2019-03-12T09:50:57.191Z,8.98
2019-03-12T09:53:38.240Z,6.97
2019-03-12T09:56:09.964Z,10.40
2019-03-12T09:58:38.891Z,9.53
2019-03-12T10:01:07.827Z,6.60
2019-03-12T10:03:53.051Z,11.95
2019-03-12T10:06:21.967Z,12.15
2019-03-12T10:09:07.270Z,8.40
2019-03-12T10:11:42.030Z,10.30
2019-03-12T10:14:16.985Z,8.10
2019-03-12T10:16:45.895Z,9.30
2019-03-12T10:19:32.589Z,10.15
2019-03-12T10:22:01.517Z,10.72
2019-03-12T10:24:36.858Z,10.20
2019-03-12T10:27:08.434Z,8.28
2019-03-12T10:29:40.206Z,9.53
2019-03-12T10:32:09.146Z,7.55
2019-03-12T10:34:49.634Z,8.93
2019-03-12T10:37:21.496Z,8.35
2019-03-12T10:40:00.052Z,8.73
2019-03-12T10:42:41.072Z,9.80
2019-03-12T10:45:25.024Z,7.92
2019-03-12T10:47:59.914Z,7.35
2019-03-12T10:50:27.272Z,11.28
2019-03-12T10:52:54.582Z,9.30
2019-03-12T10:55:21.863Z,11.05
2019-03-12T10:57:49.228Z,9.20
2019-03-12T11:00:17.355Z,7.62
2019-03-12T11:02:44.656Z,7.42
2019-03-12T11:05:12.122Z,8.90
2019-03-12T11:07:39.401Z,12.28
2019-03-12T11:10:11.207Z,9.28
2019-03-12T11:12:38.508Z,8.13
2019-03-12T11:15:07.270Z,11.63
2019-03-12T11:17:34.591Z,13.20
2019-03-12T11:20:01.948Z,9.00
2019-03-12T11:22:29.225Z,13.93
2019-03-12T11:24:56.508Z,8.18
2019-03-12T11:27:23.856Z,7.20
2019-03-12T11:29:51.119Z,7.83
2019-03-12T11:32:18.415Z,8.80
2019-03-12T11:34:45.739Z,7.53
2019-03-12T11:37:13.056Z,10.40
2019-03-12T11:39:41.388Z,12.13
2019-03-12T11:42:08.827Z,10.28
2019-03-12T11:44:36.127Z,10.88
2019-03-12T11:47:03.593Z,10.72
2019-03-12T11:49:30.941Z,10.48
2019-03-12T11:51:58.236Z,10.98
2019-03-12T11:54:25.739Z,8.98
2019-03-12T11:56:53.272Z,9.60
2019-03-12T11:59:20.697Z,9.88
2019-03-12T12:01:48.051Z,8.45
2019-03-12T12:04:15.375Z,11.18
2019-03-12T12:06:43.614Z,10.93
2019-03-12T12:09:11.192Z,9.03
2019-03-12T12:11:38.541Z,10.15
2019-03-12T12:14:05.859Z,9.58
2019-03-12T12:16:33.281Z,9.20
2019-03-12T12:19:00.553Z,8.35
2019-03-12T12:21:27.855Z,9.15
2019-03-12T12:23:55.219Z,6.85
2019-03-12T12:26:22.505Z,6.95
2019-03-12T12:28:49.890Z,10.65
2019-03-12T12:31:17.259Z,10.55
2019-03-12T12:33:44.537Z,7.22
2019-03-12T12:36:11.831Z,7.28
2019-03-12T12:38:39.139Z,9.65
2019-03-12T12:41:06.524Z,10.05
2019-03-12T12:43:33.863Z,7.35
2019-03-12T12:46:01.220Z,9.18
2019-03-12T12:48:28.564Z,8.68
2019-03-12T12:51:03.040Z,10.60
2019-03-12T12:53:25.039Z,10.28
2019-03-12T12:55:52.397Z,7.42
2019-03-12T12:58:19.700Z,6.67
2019-03-12T13:00:47.122Z,8.58
2019-03-12T13:03:14.412Z,7.15
2019-03-12T13:05:41.697Z,8.75
2019-03-12T13:08:08.983Z,8.03
2019-03-12T13:10:36.343Z,5.90
2019-03-12T13:13:03.675Z,7.40
2019-03-12T13:15:31.055Z,11.73
2019-03-12T13:17:58.328Z,6.83
2019-03-12T13:20:25.727Z,12.05
2019-03-12T13:22:53.075Z,8.38
2019-03-12T13:25:20.474Z,7.33
2019-03-12T13:27:47.979Z,7.58
2019-03-12T13:30:19.164Z,9.93
2019-03-12T13:32:46.485Z,7.45
2019-03-12T13:35:14.489Z,6.37
2019-03-12T13:37:41.798Z,7.22
2019-03-12T13:40:10.546Z,10.30
2019-03-12T13:42:37.898Z,10.20
2019-03-12T13:45:06.784Z,12.88
2019-03-12T13:47:34.237Z,5.10
2019-03-12T13:50:02.068Z,5.47
2019-03-12T13:52:29.566Z,5.10
2019-03-12T13:54:56.949Z,11.20
2019-03-12T13:57:24.403Z,7.15
2019-03-12T13:59:51.770Z,6.40
2019-03-12T14:02:19.921Z,10.90
2019-03-12T14:04:47.545Z,7.53
2019-03-12T14:07:15.141Z,7.47
2019-03-12T14:09:42.445Z,4.08
2019-03-12T14:12:09.873Z,11.20
2019-03-12T14:14:37.229Z,8.13
2019-03-12T14:17:04.744Z,10.18
2019-03-12T14:19:32.129Z,6.30
2019-03-12T14:22:00.070Z,7.97
2019-03-12T14:24:27.376Z,10.20
2019-03-12T14:26:54.764Z,6.28
2019-03-12T14:29:22.213Z,9.20
2019-03-12T14:31:49.575Z,7.17
2019-03-12T14:34:16.851Z,9.28
2019-03-12T14:36:44.246Z,6.70
2019-03-12T14:39:11.682Z,7.83
2019-03-12T14:41:39.146Z,7.22
2019-03-12T14:44:07.346Z,7.28
2019-03-12T14:46:34.746Z,6.72
2019-03-12T14:49:02.229Z,6.50
2019-03-12T14:51:31.227Z,10.43
2019-03-12T14:54:02.824Z,5.72
2019-03-12T14:56:31.008Z,8.70
2019-03-12T14:58:58.516Z,11.60
2019-03-12T15:01:25.893Z,6.42
2019-03-12T15:03:53.324Z,5.65
2019-03-12T15:06:20.604Z,7.40
2019-03-12T15:08:47.921Z,6.95
2019-03-12T15:11:15.488Z,5.95
2019-03-12T15:13:42.939Z,4.22
2019-03-12T15:16:10.350Z,5.05
2019-03-12T15:18:37.683Z,6.45
2019-03-12T15:21:05.030Z,5.20
2019-03-12T15:23:32.314Z,8.05
2019-03-12T15:25:59.602Z,6.33
2019-03-12T15:28:26.892Z,8.65
2019-03-12T15:30:54.197Z,6.70
2019-03-12T15:33:21.568Z,9.10
2019-03-12T15:35:48.919Z,7.33
2019-03-12T15:38:16.212Z,5.55
2019-03-12T15:40:44.458Z,7.75
2019-03-12T15:43:11.810Z,3.40
2019-03-12T15:45:39.095Z,6.60
2019-03-12T15:48:06.475Z,8.45
2019-03-12T15:50:34.837Z,7.95
2019-03-12T15:53:02.291Z,6.25
2019-03-12T15:55:29.624Z,6.33
2019-03-12T15:57:56.898Z,8.60
2019-03-12T16:00:24.191Z,7.83
2019-03-12T16:02:51.481Z,7.00
2019-03-12T16:05:18.873Z,5.17
2019-03-12T16:07:46.181Z,8.25
2019-03-12T16:10:14.118Z,7.35
2019-03-12T16:12:41.409Z,9.25
2019-03-12T16:15:09.563Z,6.45
2019-03-12T16:17:36.895Z,8.08
2019-03-12T16:20:05.708Z,9.75
2019-03-12T16:22:33.030Z,9.43
2019-03-12T16:25:00.377Z,10.78
2019-03-12T16:27:27.677Z,6.67
2019-03-12T16:29:55.019Z,8.20
2019-03-12T16:32:22.353Z,11.75
2019-03-12T16:34:49.689Z,6.67
2019-03-12T16:37:18.517Z,5.75
2019-03-12T16:39:45.831Z,6.60
2019-03-12T16:42:13.099Z,7.25
2019-03-12T16:44:40.387Z,7.47
2019-03-12T16:47:07.675Z,7.55
2019-03-12T16:49:34.961Z,6.03
2019-03-12T16:52:02.259Z,7.45
2019-03-12T16:54:29.551Z,6.87
2019-03-12T16:56:56.861Z,5.65
2019-03-12T16:59:24.163Z,4.78
2019-03-12T17:01:51.537Z,5.90
2019-03-12T17:04:18.887Z,6.28
2019-03-12T17:06:46.233Z,4.90
2019-03-12T17:09:14.098Z,5.78
2019-03-12T17:11:41.409Z,10.55
2019-03-12T17:14:08.785Z,6.50
2019-03-12T17:16:36.160Z,8.13
2019-03-12T17:19:03.437Z,10.98
2019-03-12T17:21:32.736Z,7.42
2019-03-12T17:24:02.433Z,4.60
2019-03-12T17:26:29.743Z,6.08
2019-03-12T17:28:57.052Z,6.92
2019-03-12T17:31:24.319Z,7.22
2019-03-12T17:33:51.714Z,10.03
2019-03-12T17:36:19.101Z,8.18
2019-03-12T17:38:48.373Z,7.92
2019-03-12T17:41:15.689Z,5.83
2019-03-12T17:43:43.135Z,8.83
2019-03-12T17:46:11.354Z,6.40
2019-03-12T17:48:38.747Z,5.47
2019-03-12T17:51:06.188Z,4.72
2019-03-12T17:53:33.479Z,8.10
2019-03-12T17:56:00.833Z,4.72
2019-03-12T17:58:28.226Z,6.85
2019-03-12T18:00:57.230Z,7.80
2019-03-12T18:03:24.601Z,10.00
2019-03-12T18:05:52.061Z,7.83
2019-03-12T18:08:19.566Z,7.17
2019-03-12T18:10:46.960Z,5.95
2019-03-12T18:13:15.566Z,6.65
2019-03-12T18:15:43.062Z,8.90
2019-03-12T18:18:10.586Z,9.85
2019-03-12T18:20:37.943Z,8.88
2019-03-12T18:23:05.370Z,3.92
2019-03-12T18:25:34.076Z,7.72
2019-03-12T18:28:01.548Z,7.92
2019-03-12T18:30:28.972Z,6.78
2019-03-12T18:32:56.482Z,6.40
2019-03-12T18:35:23.761Z,7.80
2019-03-12T18:37:53.951Z,7.67
2019-03-12T18:40:34.861Z,8.68
2019-03-12T18:43:02.486Z,8.78
2019-03-12T18:45:31.423Z,6.80
2019-03-12T18:47:59.586Z,6.55
2019-03-12T18:50:27.021Z,9.68
2019-03-12T18:52:54.372Z,5.85
2019-03-12T18:55:23.241Z,9.70
2019-03-12T18:57:50.556Z,6.30
2019-03-12T19:00:17.933Z,4.42
2019-03-12T19:02:45.276Z,5.40
2019-03-12T19:05:12.707Z,6.28
2019-03-12T19:07:40.197Z,3.85
2019-03-12T19:10:13.157Z,7.05
2019-03-12T19:12:38.218Z,7.42
2019-03-12T19:15:07.191Z,5.12
2019-03-12T19:17:34.672Z,5.55
2019-03-12T19:20:02.933Z,7.78
2019-03-12T19:22:31.824Z,3.22
2019-03-12T19:24:59.248Z,7.53
2019-03-12T19:27:27.120Z,5.60
2019-03-12T19:29:54.580Z,6.42
2019-03-12T19:32:29.310Z,3.87
2019-03-12T19:34:58.681Z,6.00
2019-03-12T19:37:26.599Z,9.70
2019-03-12T19:39:54.188Z,5.62
2019-03-12T19:42:24.364Z,6.37
2019-03-12T19:44:52.129Z,8.40
2019-03-12T19:47:20.433Z,4.95
2019-03-12T19:49:48.068Z,7.30
2019-03-12T19:52:15.776Z,4.70
2019-03-12T19:54:43.384Z,5.33
2019-03-12T19:57:10.902Z,3.10
2019-03-12T19:59:39.905Z,6.47
2019-03-12T20:02:15.901Z,5.85
2019-03-12T23:11:27.687Z,4.20
2019-03-12T23:13:55.170Z,4.67
2019-03-12T23:16:22.573Z,5.33
2019-03-12T23:18:49.899Z,5.67
2019-03-12T23:21:17.388Z,3.27
2019-03-12T23:23:44.764Z,4.08
2019-03-12T23:26:12.086Z,3.25
2019-03-12T23:28:39.477Z,4.87
2019-03-12T23:31:06.840Z,2.92
2019-03-12T23:33:34.326Z,4.85
2019-03-12T23:36:01.785Z,2.77
2019-03-12T23:38:29.257Z,2.17
2019-03-12T23:40:56.740Z,2.22
2019-03-12T23:43:24.190Z,1.60
2019-03-12T23:45:51.566Z,1.80
2019-03-12T23:48:18.924Z,2.87
2019-03-12T23:50:46.362Z,2.55
2019-03-12T23:53:13.758Z,1.85
2019-03-12T23:55:41.084Z,4.53
2019-03-12T23:58:08.564Z,3.55
